Time;durP1;ratioP1;P1;durP2;ratioP2;P2;SDS_P1;SDS_P2;PMS_P1;PMS_P2;Temp;Humidity;BMP_temperature;BMP_pressure;BME280_temperature;BME280_humidity;BME280_pressure;Samples;Min_cycle;Max_cycle;Signal;HPM_P1;HPM_P2
2022/05/11 00:01:33;;;;;;;;;;;;;;;3.76;78.92;99676.42;1637696;86;20166;-75
2022/05/11 00:04:00;;;;;;;;;;;;;;;3.73;78.41;99682.93;1634329;86;20123;-74
2022/05/11 00:06:27;;;;;;;;;;;;;;;3.70;78.11;99688.89;1650406;86;20426;-75
2022/05/11 00:08:54;;;;;;;;;;;;;;;3.67;78.18;99684.81;1633295;85;21158;-75
2022/05/11 00:11:23;;;;;;;;;;;;;;;3.63;78.47;99687.79;1632668;86;20461;-75
2022/05/11 00:13:49;;;;;;;;;;;;;;;3.59;78.87;99686.69;1635225;86;20175;-75
2022/05/11 00:16:16;;;;;;;;;;;;;;;3.55;79.30;99688.30;1642303;86;20109;-75
2022/05/11 00:18:42;;;;;;;;;;;;;;;3.54;79.64;99695.63;1645304;85;20101;-75
2022/05/11 00:21:08;;;;;;;;;;;;;;;3.50;79.55;99693.17;1651267;86;21153;-75
2022/05/11 00:23:35;;;;;;;;;;;;;;;3.47;80.27;99691.52;1634512;86;20090;-75
2022/05/11 00:26:02;;;;;;;;;;;;;;;3.45;80.59;99686.94;1631856;86;20131;-75
2022/05/11 00:28:28;;;;;;;;;;;;;;;3.41;80.30;99693.97;1657651;86;20462;-75
2022/05/11 00:30:55;;;;;;;;;;;;;;;3.37;80.04;99688.80;1651523;86;20117;-75
2022/05/11 00:33:21;;;;;;;;;;;;;;;3.33;79.52;99684.98;1646732;86;21130;-74
2022/05/11 00:35:49;;;;;;;;;;;;;;;3.29;79.18;99679.27;1629162;86;20122;-75
2022/05/11 00:38:17;;;;;;;;;;;;;;;3.27;78.81;99685.50;1633465;86;20105;-74
2022/05/11 00:40:46;;;;;;;;;;;;;;;3.25;78.56;99678.98;1630360;86;20403;-74
2022/05/11 00:43:13;;;;;;;;;;;;;;;3.24;78.45;99675.17;1655033;85;20198;-75
2022/05/11 00:45:43;;;;;;;;;;;;;;;3.22;78.58;99679.51;1632957;85;21161;-74
2022/05/11 00:50:57;;;;;;;;;;;;;;;3.14;78.89;99678.66;1635072;85;20146;-75
2022/05/11 00:53:23;;;;;;;;;;;;;;;3.09;79.17;99684.05;1641033;86;20102;-75
2022/05/11 00:55:53;;;;;;;;;;;;;;;3.04;79.60;99684.02;1638734;85;20467;-75
2022/05/11 00:58:29;;;;;;;;;;;;;;;3.02;80.39;99684.00;1659566;82;21919;-74
2022/05/11 01:00:55;;;;;;;;;;;;;;;2.99;80.73;99678.56;1628950;86;20126;-74
2022/05/11 01:03:24;;;;;;;;;;;;;;;2.96;80.68;99682.62;1630509;86;20158;-74
2022/05/11 01:05:51;;;;;;;;;;;;;;;2.93;80.66;99679.61;1651827;86;20146;-74
2022/05/11 01:08:18;;;;;;;;;;;;;;;2.89;80.68;99677.97;1647231;86;20138;-75
2022/05/11 01:10:45;;;;;;;;;;;;;;;2.87;80.80;99682.05;1634484;86;21565;-74
2022/05/11 01:13:12;;;;;;;;;;;;;;;2.86;81.16;99679.06;1643851;86;20433;-74
2022/05/11 01:15:39;;;;;;;;;;;;;;;2.84;81.29;99677.15;1649020;86;20441;-75
2022/05/11 01:18:06;;;;;;;;;;;;;;;2.81;81.36;99673.61;1642240;85;20130;-74
2022/05/11 01:20:33;;;;;;;;;;;;;;;2.79;81.36;99675.77;1652693;85;20213;-75
2022/05/11 01:23:23;;;;;;;;;;;;;;;2.76;81.46;99676.28;1654285;86;21160;-75
2022/05/11 01:25:50;;;;;;;;;;;;;;;2.71;81.53;99676.25;1634427;86;20078;-74
2022/05/11 01:28:17;;;;;;;;;;;;;;;2.69;81.73;99685.18;1638405;86;20102;-75
2022/05/11 01:30:49;;;;;;;;;;;;;;;2.65;81.92;99675.39;1666733;84;20447;-75
2022/05/11 01:33:22;;;;;;;;;;;;;;;2.64;82.11;99665.63;1637188;86;20102;-75
2022/05/11 01:36:01;;;;;;;;;;;;;;;2.62;82.26;99672.66;1631808;85;21172;-73
2022/05/11 01:38:42;;;;;;;;;;;;;;;2.61;82.25;99672.92;1641332;86;20126;-74
2022/05/11 01:41:13;;;;;;;;;;;;;;;2.57;82.07;99667.75;1631470;86;20198;-74
2022/05/11 01:43:39;;;;;;;;;;;;;;;2.53;82.35;99667.45;1646803;85;20261;-74
2022/05/11 01:46:06;;;;;;;;;;;;;;;2.51;82.54;99667.43;1655205;84;20093;-74
2022/05/11 01:48:34;;;;;;;;;;;;;;;2.46;82.61;99672.81;1646695;86;39096;-74
2022/05/11 01:51:00;;;;;;;;;;;;;;;2.42;82.87;99677.93;1632799;86;20094;-74
2022/05/11 01:53:27;;;;;;;;;;;;;;;2.40;82.96;99669.78;1635744;86;20158;-74
2022/05/11 01:55:53;;;;;;;;;;;;;;;2.38;83.22;99669.22;1628753;86;20082;-74
2022/05/11 01:58:20;;;;;;;;;;;;;;;2.36;83.35;99669.48;1639941;86;20102;-74
2022/05/11 02:00:46;;;;;;;;;;;;;;;2.34;83.31;99670.28;1635991;86;21833;-74
2022/05/11 02:03:13;;;;;;;;;;;;;;;2.31;83.43;99666.20;1650486;86;20150;-74
2022/05/11 02:08:26;;;;;;;;;;;;;;;2.24;83.55;99666.16;1634896;86;20661;-73
2022/05/11 02:10:53;;;;;;;;;;;;;;;2.21;83.86;99668.84;1641869;86;20111;-74
2022/05/11 02:13:19;;;;;;;;;;;;;;;2.18;84.30;99663.95;1626889;86;21772;-74
2022/05/11 02:15:45;;;;;;;;;;;;;;;2.17;84.74;99667.73;1640026;86;20150;-73
2022/05/11 02:18:12;;;;;;;;;;;;;;;2.14;84.84;99666.07;1643505;85;20105;-74
2022/05/11 02:20:38;;;;;;;;;;;;;;;2.11;85.05;99664.70;1636753;86;20566;-74
2022/05/11 02:23:04;;;;;;;;;;;;;;;2.11;85.17;99664.70;1654908;86;20205;-74
2022/05/11 02:25:30;;;;;;;;;;;;;;;2.08;85.11;99668.45;1648352;86;21090;-73
2022/05/11 02:27:57;;;;;;;;;;;;;;;2.05;85.19;99668.97;1654553;86;20433;-74
2022/05/11 02:30:25;;;;;;;;;;;;;;;2.03;85.40;99657.03;1701111;84;20162;-74
2022/05/11 02:32:53;;;;;;;;;;;;;;;2.01;85.79;99656.47;1696242;84;20164;-74
2022/05/11 02:35:21;;;;;;;;;;;;;;;1.99;85.95;99658.63;1649106;86;20078;-74
2022/05/11 02:37:55;;;;;;;;;;;;;;;1.98;86.05;99659.70;1628425;86;21135;-74
2022/05/11 02:40:24;;;;;;;;;;;;;;;1.98;86.11;99666.47;1605795;87;20180;-74
2022/05/11 02:42:50;;;;;;;;;;;;;;;1.97;86.33;99660.77;1657741;84;20103;-74
2022/05/11 02:45:16;;;;;;;;;;;;;;;1.96;86.47;99666.72;1668047;85;20209;-73
2022/05/11 02:47:45;;;;;;;;;;;;;;;1.97;86.54;99666.19;1665543;85;20127;-74
2022/05/11 02:50:13;;;;;;;;;;;;;;;1.99;86.69;99657.27;1662527;85;21118;-73
2022/05/11 02:52:39;;;;;;;;;;;;;;;2.01;86.63;99662.43;1651368;84;20470;-73
2022/05/11 02:55:06;;;;;;;;;;;;;;;2.02;86.60;99664.88;1685663;84;20089;-74
2022/05/11 02:57:32;;;;;;;;;;;;;;;2.07;86.66;99661.41;1687276;84;20102;-74
2022/05/11 02:59:59;;;;;;;;;;;;;;;2.10;86.83;99661.70;1682108;83;20157;-74
2022/05/11 03:02:25;;;;;;;;;;;;;;;2.14;87.09;99664.72;1683839;84;21167;-74
2022/05/11 03:04:52;;;;;;;;;;;;;;;2.18;87.23;99667.19;1703654;83;20167;-74
2022/05/11 03:07:19;;;;;;;;;;;;;;;2.21;87.36;99661.26;1693136;83;20193;-74
2022/05/11 03:09:46;;;;;;;;;;;;;;;2.27;87.47;99660.23;1690445;83;20749;-74
2022/05/11 03:12:13;;;;;;;;;;;;;;;2.30;87.63;99656.46;1709431;83;20094;-75
2022/05/11 03:14:39;;;;;;;;;;;;;;;2.38;87.98;99665.16;1703794;83;21120;-74
2022/05/11 03:17:06;;;;;;;;;;;;;;;2.44;88.45;99662.23;1660880;84;20450;-74
2022/05/11 03:19:32;;;;;;;;;;;;;;;2.54;88.73;99670.44;1608627;87;20245;-74
2022/05/11 03:21:59;;;;;;;;;;;;;;;2.61;88.54;99668.86;1652346;85;20233;-74
2022/05/11 03:24:25;;;;;;;;;;;;;;;2.70;88.42;99655.64;1660281;85;20166;-75
2022/05/11 03:26:51;;;;;;;;;;;;;;;2.79;88.60;99660.84;1668726;85;22257;-74
2022/05/11 03:29:19;;;;;;;;;;;;;;;2.88;88.83;99665.52;1664211;85;20110;-74
2022/05/11 03:34:36;;;;;;;;;;;;;;;2.98;88.79;99665.55;1652524;86;20207;-74
2022/05/11 03:36:59;;;;;;;;;;;;;;;3.21;89.04;99664.31;1689275;84;20440;-74
2022/05/11 03:39:26;;;;;;;;;;;;;;;3.38;89.16;99667.36;1691350;83;21493;-74
2022/05/11 03:41:52;;;;;;;;;;;;;;;3.55;88.90;99667.94;1647437;84;20108;-74
2022/05/11 03:44:19;;;;;;;;;;;;;;;3.71;88.79;99669.62;1647725;85;20152;-74
2022/05/11 03:46:46;;;;;;;;;;;;;;;3.87;88.58;99676.72;1660836;85;20100;-76
2022/05/11 03:49:12;;;;;;;;;;;;;;;4.05;87.61;99671.84;1666476;85;20214;-74
2022/05/11 03:51:38;;;;;;;;;;;;;;;4.23;86.54;99673.49;1664262;85;21802;-73
2022/05/11 03:54:05;;;;;;;;;;;;;;;4.43;85.14;99674.05;1665517;86;20117;-73
2022/05/11 03:56:31;;;;;;;;;;;;;;;4.60;84.43;99677.30;1664985;86;20188;-73
2022/05/11 03:58:57;;;;;;;;;;;;;;;4.78;82.87;99679.16;1665328;85;20606;-73
2022/05/11 04:01:24;;;;;;;;;;;;;;;4.96;81.50;99679.94;1665609;86;20088;-73
2022/05/11 04:03:50;;;;;;;;;;;;;;;5.14;79.00;99675.27;1663228;85;21772;-72
2022/05/11 04:06:16;;;;;;;;;;;;;;;5.31;77.17;99666.20;1660937;86;20100;-73
2022/05/11 04:08:43;;;;;;;;;;;;;;;5.50;75.94;99666.41;1662525;86;20144;-72
2022/05/11 04:11:12;;;;;;;;;;;;;;;5.67;74.00;99661.16;1667766;86;20124;-74
2022/05/11 04:13:40;;;;;;;;;;;;;;;5.84;72.01;99667.84;1666039;85;20124;-74
2022/05/11 04:16:07;;;;;;;;;;;;;;;6.03;71.56;99672.11;1664805;86;21301;-74
2022/05/11 04:18:34;;;;;;;;;;;;;;;6.20;71.40;99665.73;1666142;85;20088;-73
2022/05/11 04:21:01;;;;;;;;;;;;;;;6.39;70.39;99667.74;1634604;86;20166;-74
2022/05/11 04:23:27;;;;;;;;;;;;;;;6.56;70.32;99664.05;1656134;86;20128;-74
2022/05/11 04:25:55;;;;;;;;;;;;;;;6.71;69.57;99661.73;1661722;85;20088;-74
2022/05/11 04:28:22;;;;;;;;;;;;;;;6.87;69.15;99669.49;1663737;86;21148;-74
2022/05/11 04:30:49;;;;;;;;;;;;;;;7.05;67.23;99669.83;1664202;85;20148;-72
2022/05/11 04:33:15;;;;;;;;;;;;;;;7.20;65.26;99669.67;1650458;85;20120;-70
2022/05/11 04:35:42;;;;;;;;;;;;;;;7.36;64.32;99667.02;1654362;86;20116;-72
2022/05/11 04:38:09;;;;;;;;;;;;;;;7.51;64.77;99667.39;1653782;86;20112;-74
2022/05/11 04:40:36;;;;;;;;;;;;;;;7.69;66.12;99676.70;1652324;86;21148;-78
2022/05/11 04:43:07;;;;;;;;;;;;;;;7.84;65.28;99664.20;1652056;86;20116;-72
2022/05/11 04:45:36;;;;;;;;;;;;;;;8.05;64.98;99667.45;1661202;85;20156;-73
2022/05/11 04:48:03;;;;;;;;;;;;;;;8.24;62.77;99669.60;1654523;85;20176;-72
2022/05/11 04:50:29;;;;;;;;;;;;;;;8.38;62.37;99666.40;1659294;85;20233;-68
2022/05/11 04:52:57;;;;;;;;;;;;;;;8.53;61.53;99674.92;1660755;85;21177;-68
2022/05/11 04:55:24;;;;;;;;;;;;;;;8.67;60.55;99673.56;1663016;85;20100;-68
2022/05/11 04:57:50;;;;;;;;;;;;;;;8.81;61.32;99668.94;1648721;85;20119;-84
2022/05/11 05:00:18;;;;;;;;;;;;;;;8.95;57.83;99665.67;1642536;85;20156;-73
2022/05/11 05:02:44;;;;;;;;;;;;;;;9.09;56.82;99667.88;1656129;85;20139;-71
2022/05/11 05:05:12;;;;;;;;;;;;;;;9.22;55.48;99669.00;1626473;86;21183;-81
2022/05/11 05:07:40;;;;;;;;;;;;;;;9.37;54.82;99671.41;1648705;84;20117;-71
2022/05/11 05:10:08;;;;;;;;;;;;;;;9.52;54.19;99674.41;1609359;87;20158;-81
2022/05/11 05:12:35;;;;;;;;;;;;;;;9.66;53.18;99672.47;1638458;86;20481;-71
2022/05/11 05:15:02;;;;;;;;;;;;;;;9.81;52.90;99669.41;1638033;86;20157;-74
2022/05/11 05:17:29;;;;;;;;;;;;;;;9.98;51.27;99665.17;1682461;83;21139;-82
2022/05/11 05:19:55;;;;;;;;;;;;;;;10.15;51.23;99663.96;1659981;83;20135;-71
2022/05/11 05:22:22;;;;;;;;;;;;;;;10.34;49.66;99664.63;1631349;85;20162;-70
2022/05/11 05:24:50;;;;;;;;;;;;;;;10.50;48.30;99666.42;1633751;86;20365;-72
2022/05/11 05:27:18;;;;;;;;;;;;;;;10.61;47.02;99665.05;1632049;84;20448;-71
2022/05/11 05:32:35;;;;;;;;;;;;;;;10.86;45.63;99671.83;1656385;83;20114;-74
2022/05/11 05:35:04;;;;;;;;;;;;;;;10.99;45.17;99667.34;1666960;84;20087;-73
2022/05/11 05:37:31;;;;;;;;;;;;;;;11.13;45.23;99663.38;1686737;83;20100;-73
2022/05/11 05:39:57;;;;;;;;;;;;;;;11.27;43.85;99669.34;1668592;83;20214;-73
2022/05/11 05:42:24;;;;;;;;;;;;;;;11.37;44.34;99666.31;1668135;83;21808;-70
2022/05/11 05:44:51;;;;;;;;;;;;;;;11.47;45.33;99661.90;1678012;82;20142;-70
2022/05/11 05:47:19;;;;;;;;;;;;;;;11.61;43.06;99661.75;1680757;83;20172;-69
2022/05/11 05:49:46;;;;;;;;;;;;;;;11.71;43.89;99662.26;1690550;83;20127;-70
2022/05/11 05:52:19;;;;;;;;;;;;;;;11.84;43.28;99664.67;1661433;84;20097;-70
2022/05/11 05:54:46;;;;;;;;;;;;;;;11.95;42.86;99666.55;1661845;83;21933;-69
2022/05/11 05:57:13;;;;;;;;;;;;;;;12.05;42.00;99660.16;1672090;85;20081;-77
2022/05/11 05:59:40;;;;;;;;;;;;;;;12.13;42.74;99654.42;1667296;85;20100;-76
2022/05/11 06:02:12;;;;;;;;;;;;;;;12.22;42.72;99655.20;1665939;85;20221;-77
2022/05/11 06:04:35;;;;;;;;;;;;;;;12.32;43.33;99651.32;1662572;85;20088;-72
2022/05/11 06:07:02;;;;;;;;;;;;;;;12.41;41.93;99656.26;1635821;85;21096;-72
2022/05/11 06:09:29;;;;;;;;;;;;;;;12.49;40.89;99649.94;1655407;85;20100;-75
2022/05/11 06:11:56;;;;;;;;;;;;;;;12.64;40.03;99651.37;1663677;85;20180;-72
2022/05/11 06:14:24;;;;;;;;;;;;;;;12.75;40.02;99648.48;1664616;85;20142;-75
2022/05/11 06:16:53;;;;;;;;;;;;;;;12.86;39.55;99650.56;1626867;88;20122;-74
2022/05/11 06:19:20;;;;;;;;;;;;;;;13.00;39.02;99645.42;1635561;87;21171;-76
2022/05/11 06:21:48;;;;;;;;;;;;;;;13.15;40.68;99645.70;1667101;85;20210;-77
2022/05/11 06:24:16;;;;;;;;;;;;;;;13.32;39.44;99645.39;1662097;86;20419;-85
2022/05/11 06:26:42;;;;;;;;;;;;;;;13.43;39.25;99644.69;1662333;85;20140;-84
2022/05/11 06:29:08;;;;;;;;;;;;;;;13.56;39.50;99635.94;1663468;85;20173;-72
2022/05/11 06:31:34;;;;;;;;;;;;;;;13.72;37.29;99635.61;1650652;84;21924;-79
2022/05/11 06:34:01;;;;;;;;;;;;;;;13.77;37.48;99634.03;1663469;85;20140;-73
2022/05/11 06:36:27;;;;;;;;;;;;;;;13.85;35.85;99635.12;1637186;86;20230;-72
2022/05/11 06:38:54;;;;;;;;;;;;;;;13.88;36.45;99641.31;1665390;85;20401;-73
2022/05/11 06:41:23;;;;;;;;;;;;;;;13.95;38.05;99640.78;1669109;85;20428;-73
2022/05/11 06:43:51;;;;;;;;;;;;;;;14.01;36.60;99642.20;1677762;85;21115;-74
2022/05/11 06:46:18;;;;;;;;;;;;;;;14.07;37.63;99634.77;1662437;85;20116;-76
2022/05/11 06:48:45;;;;;;;;;;;;;;;14.17;34.97;99632.17;1636907;87;20184;-78
2022/05/11 06:51:14;;;;;;;;;;;;;;;14.24;35.65;99624.73;1626513;86;20156;-83
2022/05/11 06:59:22;;;;;;;;;;;;;;;14.60;37.16;99620.73;1685628;84;20116;-77
2022/05/11 07:01:51;;;;;;;;;;;;;;;14.77;35.06;99619.18;1686890;83;20118;-79
2022/05/11 07:04:22;;;;;;;;;;;;;;;14.88;34.55;99612.64;1663409;85;20148;-77
2022/05/11 07:06:52;;;;;;;;;;;;;;;14.97;33.70;99612.55;1653596;84;20446;-77
2022/05/11 07:09:20;;;;;;;;;;;;;;;15.04;35.46;99608.03;1625098;86;21132;-78
2022/05/11 07:14:35;;;;;;;;;;;;;;;15.27;32.74;99600.10;1667035;85;20439;-76
2022/05/11 07:17:02;;;;;;;;;;;;;;;15.30;32.99;99591.69;1653045;84;20572;-76
2022/05/11 07:19:29;;;;;;;;;;;;;;;15.35;33.24;99596.99;1679061;83;20177;-75
2022/05/11 07:21:56;;;;;;;;;;;;;;;15.43;32.77;99598.26;1655525;84;21145;-75
2022/05/11 07:24:23;;;;;;;;;;;;;;;15.50;32.95;99593.53;1663379;85;20128;-74
2022/05/11 07:26:51;;;;;;;;;;;;;;;15.53;33.09;99591.45;1663045;85;20133;-74
2022/05/11 07:29:19;;;;;;;;;;;;;;;15.61;32.16;99589.14;1636259;87;20230;-75
2022/05/11 07:31:46;;;;;;;;;;;;;;;15.63;30.38;99588.21;1637489;87;20158;-75
2022/05/11 07:34:13;;;;;;;;;;;;;;;15.56;32.27;99586.61;1640792;86;21055;-75
2022/05/11 07:36:39;;;;;;;;;;;;;;;15.58;31.68;99584.33;1630716;86;20472;-75
2022/05/11 07:39:05;;;;;;;;;;;;;;;15.68;32.34;99580.25;1609844;87;20121;-75
2022/05/11 07:41:32;;;;;;;;;;;;;;;15.85;32.91;99583.56;1614966;86;20478;-76
2022/05/11 07:43:58;;;;;;;;;;;;;;;16.07;33.06;99574.50;1615985;87;20444;-75
2022/05/11 07:46:26;;;;;;;;;;;;;;;16.29;33.89;99575.31;1603855;87;21138;-75
2022/05/11 07:48:53;;;;;;;;;;;;;;;16.55;33.51;99573.45;1603574;88;20134;-80
2022/05/11 07:51:20;;;;;;;;;;;;;;;16.68;30.50;99564.53;1614127;86;20319;-81
2022/05/11 07:53:47;;;;;;;;;;;;;;;16.76;31.11;99570.45;1613761;86;20231;-75
2022/05/11 08:01:42;;;;;;;;;;;;;;;17.36;31.94;99566.39;1639992;85;20144;-73
2022/05/11 08:04:09;;;;;;;;;;;;;;;17.63;29.98;99559.09;1645113;85;20418;-73
2022/05/11 08:06:37;;;;;;;;;;;;;;;17.91;27.40;99563.69;1668913;84;20195;-72
2022/05/11 08:09:03;;;;;;;;;;;;;;;17.97;27.49;99558.04;1662171;82;20428;-70
2022/05/11 08:11:30;;;;;;;;;;;;;;;18.06;27.69;99560.02;1689752;82;21103;-77
2022/05/11 08:13:56;;;;;;;;;;;;;;;18.31;28.06;99552.19;1688574;82;20119;-75
2022/05/11 08:16:25;;;;;;;;;;;;;;;18.54;26.20;99553.59;1694008;82;20461;-76
2022/05/11 08:18:52;;;;;;;;;;;;;;;18.65;26.28;99552.66;1693095;82;20441;-71
2022/05/11 08:21:19;;;;;;;;;;;;;;;18.87;27.00;99552.45;1653054;84;20177;-74
2022/05/11 08:23:47;;;;;;;;;;;;;;;19.21;26.84;99550.61;1622198;85;21153;-77
2022/05/11 08:26:13;;;;;;;;;;;;;;;19.54;25.30;99547.17;1635174;85;20126;-86
2022/05/11 08:28:39;;;;;;;;;;;;;;;19.58;23.93;99552.79;1641639;85;20442;-80
2022/05/11 08:33:51;;;;;;;;;;;;;;;19.64;24.59;99548.50;1661428;84;20094;-87
2022/05/11 08:36:22;;;;;;;;;;;;;;;19.79;25.51;99534.38;1618213;86;21804;-82
2022/05/11 08:38:50;;;;;;;;;;;;;;;20.09;26.42;99541.92;1638465;87;20114;-72
2022/05/11 08:41:24;;;;;;;;;;;;;;;20.34;23.50;99538.00;1649763;87;20098;-72
2022/05/11 08:43:49;;;;;;;;;;;;;;;20.32;23.84;99534.80;1645185;85;20135;-74
2022/05/11 08:46:25;;;;;;;;;;;;;;;20.25;22.54;99534.71;1649378;85;20102;-68
2022/05/11 08:49:00;;;;;;;;;;;;;;;20.11;23.21;99532.00;1646432;85;21098;-70
2022/05/11 08:51:36;;;;;;;;;;;;;;;20.10;24.74;99533.77;1644552;86;20147;-87
2022/05/11 08:54:06;;;;;;;;;;;;;;;20.18;23.08;99525.70;1647663;85;20118;-78
2022/05/11 08:56:33;;;;;;;;;;;;;;;20.21;23.54;99524.95;1648272;85;20652;-79
2022/05/11 08:59:00;;;;;;;;;;;;;;;20.39;23.78;99530.72;1645198;85;20249;-76
2022/05/11 09:01:36;;;;;;;;;;;;;;;20.63;23.17;99529.37;1639617;85;21184;-76
2022/05/11 09:04:06;;;;;;;;;;;;;;;20.81;22.57;99515.58;1648197;87;20460;-73
2022/05/11 09:06:32;;;;;;;;;;;;;;;20.87;23.03;99514.03;1646419;85;20240;-79
2022/05/11 09:09:00;;;;;;;;;;;;;;;20.97;23.24;99511.93;1615535;86;20534;-73
2022/05/11 09:11:30;;;;;;;;;;;;;;;21.10;22.89;99512.64;1638274;86;20128;-73
2022/05/11 09:13:58;;;;;;;;;;;;;;;21.30;22.49;99509.62;1640478;86;21158;-79
2022/05/11 09:16:39;;;;;;;;;;;;;;;21.45;22.14;99497.92;1641823;86;20115;-71
2022/05/11 09:19:21;;;;;;;;;;;;;;;21.55;21.71;99506.96;1641480;86;20450;-76
2022/05/11 09:21:50;;;;;;;;;;;;;;;21.60;23.12;99517.77;1640754;86;20678;-80
2022/05/11 09:24:28;;;;;;;;;;;;;;;21.80;22.67;99509.89;1642824;85;20118;-78
2022/05/11 09:27:04;;;;;;;;;;;;;;;21.94;21.90;99505.77;1644637;87;21143;-72
2022/05/11 09:29:35;;;;;;;;;;;;;;;22.08;22.32;99502.44;1647686;86;20102;-77
2022/05/11 09:32:20;;;;;;;;;;;;;;;22.28;21.16;99496.50;1635329;86;20168;-79
2022/05/11 09:34:46;;;;;;;;;;;;;;;22.46;20.66;99486.16;1626725;86;20096;-79
2022/05/11 09:37:29;;;;;;;;;;;;;;;22.55;22.88;99482.95;1642590;85;20122;-78
2022/05/11 09:40:11;;;;;;;;;;;;;;;22.66;23.00;99486.56;1644390;86;21181;-75
2022/05/11 09:42:50;;;;;;;;;;;;;;;22.64;20.02;99481.36;1611114;87;20425;-71
2022/05/11 09:45:43;;;;;;;;;;;;;;;22.30;20.04;99478.73;1633856;86;20174;-74
2022/05/11 09:48:16;;;;;;;;;;;;;;;22.00;21.39;99486.00;1645685;87;20127;-70
2022/05/11 09:50:43;;;;;;;;;;;;;;;22.13;20.59;99476.09;1633324;86;20634;-70
2022/05/11 09:53:31;;;;;;;;;;;;;;;22.21;20.16;99471.32;1638009;86;21158;-71
2022/05/11 09:56:13;;;;;;;;;;;;;;;22.26;21.72;99474.53;1671493;85;20100;-71
2022/05/11 09:58:40;;;;;;;;;;;;;;;22.47;19.88;99475.77;1673638;84;20449;-70
2022/05/11 10:01:16;;;;;;;;;;;;;;;22.26;21.24;99473.13;1662929;85;20134;-76
2022/05/11 10:03:52;;;;;;;;;;;;;;;22.00;20.75;99481.80;1628216;86;20449;-71
2022/05/11 10:06:19;;;;;;;;;;;;;;;21.76;20.48;99474.95;1614349;87;21156;-75
2022/05/11 10:08:48;;;;;;;;;;;;;;;21.55;19.72;99477.63;1611760;87;20463;-76
2022/05/11 10:11:23;;;;;;;;;;;;;;;21.48;22.18;99474.20;1611199;87;20114;-74
2022/05/11 10:14:02;;;;;;;;;;;;;;;21.85;23.07;99473.99;1611538;87;20207;-74
2022/05/11 10:22:13;;;;;;;;;;;;;;;22.71;20.86;99474.38;1664598;84;20100;-73
2022/05/11 10:24:52;;;;;;;;;;;;;;;22.80;20.39;99471.81;1665104;84;20155;-75
2022/05/11 10:27:41;;;;;;;;;;;;;;;22.89;20.01;99473.01;1684169;83;20118;-73
2022/05/11 10:30:17;;;;;;;;;;;;;;;23.03;20.19;99465.20;1658212;84;20129;-70
2022/05/11 10:32:53;;;;;;;;;;;;;;;23.22;21.01;99468.16;1640804;86;21805;-70
2022/05/11 10:35:24;;;;;;;;;;;;;;;23.41;20.13;99467.72;1663045;83;20087;-71
2022/05/11 10:38:22;;;;;;;;;;;;;;;23.47;20.68;99461.11;1674199;82;20439;-74
2022/05/11 10:40:59;;;;;;;;;;;;;;;23.52;20.79;99451.69;1688909;84;20635;-75
2022/05/11 10:43:45;;;;;;;;;;;;;;;23.56;19.69;99448.30;1694448;83;20431;-74
2022/05/11 10:46:15;;;;;;;;;;;;;;;23.39;19.66;99453.32;1672460;84;21124;-72
2022/05/11 10:49:03;;;;;;;;;;;;;;;23.25;19.41;99447.15;1673684;85;20423;-75
2022/05/11 10:51:45;;;;;;;;;;;;;;;23.17;20.23;99451.77;1691596;83;20169;-80
2022/05/11 10:54:35;;;;;;;;;;;;;;;23.43;20.36;99449.11;1690436;83;20145;-78
2022/05/11 10:57:11;;;;;;;;;;;;;;;23.57;18.86;99440.69;1691505;83;20121;-81
2022/05/11 10:59:58;;;;;;;;;;;;;;;23.37;20.00;99434.12;1690517;83;21167;-79
2022/05/11 11:02:40;;;;;;;;;;;;;;;23.41;20.52;99433.31;1686227;83;20422;-76
2022/05/11 11:05:18;;;;;;;;;;;;;;;23.48;20.12;99422.88;1689527;84;20088;-74
2022/05/11 11:07:52;;;;;;;;;;;;;;;23.55;19.39;99424.89;1690569;83;20085;-76
2022/05/11 11:10:28;;;;;;;;;;;;;;;23.55;20.18;99430.49;1692494;83;20146;-73
2022/05/11 11:13:21;;;;;;;;;;;;;;;23.59;20.15;99425.08;1696540;83;21635;-72
2022/05/11 11:15:47;;;;;;;;;;;;;;;23.75;21.26;99416.77;1692556;83;20124;-74
2022/05/11 11:18:15;;;;;;;;;;;;;;;24.04;20.73;99416.22;1692584;83;20149;-74
2022/05/11 11:20:45;;;;;;;;;;;;;;;24.29;20.28;99410.46;1695669;82;20182;-73
2022/05/11 11:23:14;;;;;;;;;;;;;;;24.41;20.57;99416.80;1710076;83;20274;-72
2022/05/11 11:25:56;;;;;;;;;;;;;;;24.43;19.60;99409.56;1711134;83;21155;-82
2022/05/11 11:28:24;;;;;;;;;;;;;;;24.39;20.13;99409.39;1689357;83;20147;-68
2022/05/11 11:31:04;;;;;;;;;;;;;;;24.38;19.77;99411.40;1693466;83;20149;-68
2022/05/11 11:33:34;;;;;;;;;;;;;;;24.43;19.24;99405.95;1686062;82;20097;-69
2022/05/11 11:36:07;;;;;;;;;;;;;;;24.50;19.22;99407.31;1693982;83;20135;-68
2022/05/11 11:38:41;;;;;;;;;;;;;;;24.44;18.80;99404.75;1686303;83;21809;-82
2022/05/11 11:41:21;;;;;;;;;;;;;;;24.39;20.29;99398.97;1681625;82;20195;-78
2022/05/11 11:43:54;;;;;;;;;;;;;;;24.46;20.23;99391.91;1658803;84;20208;-72
2022/05/11 11:46:34;;;;;;;;;;;;;;;24.54;19.20;99385.02;1662658;85;20170;-73
2022/05/11 11:49:23;;;;;;;;;;;;;;;24.66;19.24;99390.13;1628627;86;20179;-71
2022/05/11 11:52:01;;;;;;;;;;;;;;;24.56;18.82;99386.81;1637553;87;21825;-75
2022/05/11 11:54:31;;;;;;;;;;;;;;;24.40;19.26;99385.13;1636067;86;20109;-77
2022/05/11 11:56:59;;;;;;;;;;;;;;;24.45;19.56;99384.70;1644742;86;20155;-76
2022/05/11 11:59:29;;;;;;;;;;;;;;;24.39;18.26;99380.73;1644417;86;20222;-73
2022/05/11 12:01:59;;;;;;;;;;;;;;;24.21;18.70;99380.06;1644573;87;20083;-81
2022/05/11 12:04:32;;;;;;;;;;;;;;;24.17;20.10;99380.70;1587025;89;21818;-88
2022/05/11 12:15:33;;;;;;;;;;;;;;;24.28;19.40;99374.41;1628816;88;20133;-73
2022/05/11 12:18:00;;;;;;;;;;;;;;;24.31;20.79;99364.56;1628496;86;21842;-74
2022/05/11 12:20:26;;;;;;;;;;;;;;;24.58;18.74;99371.77;1628644;88;20145;-73
2022/05/11 12:22:56;;;;;;;;;;;;;;;24.67;18.55;99364.27;1628422;88;20508;-73
2022/05/11 12:25:31;;;;;;;;;;;;;;;24.72;19.18;99367.23;1621785;87;20101;-73
2022/05/11 12:28:00;;;;;;;;;;;;;;;24.71;18.26;99369.24;1634251;88;20125;-74
2022/05/11 12:30:32;;;;;;;;;;;;;;;24.79;19.39;99361.55;1676396;83;21136;-73
2022/05/11 12:33:04;;;;;;;;;;;;;;;24.87;18.65;99358.84;1661392;84;20087;-71
2022/05/11 12:35:34;;;;;;;;;;;;;;;24.76;18.31;99358.17;1672789;83;20431;-74
2022/05/11 12:38:05;;;;;;;;;;;;;;;24.66;18.93;99357.86;1676145;83;20153;-74
2022/05/11 12:40:34;;;;;;;;;;;;;;;24.68;19.40;99349.02;1657899;85;20155;-74
2022/05/11 12:43:08;;;;;;;;;;;;;;;24.88;19.61;99337.36;1661701;82;21166;-75
2022/05/11 12:45:38;;;;;;;;;;;;;;;25.28;19.89;99341.36;1663877;84;20100;-74
2022/05/11 12:48:05;;;;;;;;;;;;;;;25.65;20.22;99337.67;1666734;83;20175;-72
2022/05/11 12:50:39;;;;;;;;;;;;;;;25.95;19.39;99331.84;1677397;84;20707;-75
2022/05/11 12:53:24;;;;;;;;;;;;;;;26.15;18.77;99322.86;1662943;84;20124;-74
2022/05/11 12:55:53;;;;;;;;;;;;;;;26.23;19.30;99324.94;1652821;85;21734;-74
2022/05/11 12:58:24;;;;;;;;;;;;;;;26.20;18.16;99330.02;1655481;85;20100;-74
2022/05/11 13:01:04;;;;;;;;;;;;;;;25.98;18.50;99333.19;1658577;85;20155;-73
2022/05/11 13:03:36;;;;;;;;;;;;;;;25.91;19.39;99326.88;1627677;85;20160;-72
2022/05/11 13:06:08;;;;;;;;;;;;;;;26.02;17.83;99319.05;1665586;83;20076;-83
2022/05/11 13:08:40;;;;;;;;;;;;;;;26.14;18.42;99317.66;1658996;83;21160;-72
2022/05/11 13:11:06;;;;;;;;;;;;;;;26.43;17.12;99318.02;1678690;85;20112;-73
2022/05/11 13:13:35;;;;;;;;;;;;;;;26.38;18.27;99310.86;1668487;84;20446;-72
2022/05/11 13:16:04;;;;;;;;;;;;;;;26.30;17.88;99314.98;1675086;83;20724;-74
2022/05/11 13:18:30;;;;;;;;;;;;;;;26.33;17.96;99308.53;1677365;83;20127;-73
2022/05/11 13:21:00;;;;;;;;;;;;;;;26.45;18.19;99300.88;1684659;83;21117;-73
2022/05/11 13:23:48;;;;;;;;;;;;;;;26.38;17.85;99300.21;1659922;83;20103;-73
2022/05/11 13:26:44;;;;;;;;;;;;;;;26.22;18.29;99301.64;1657142;85;20120;-73
2022/05/11 13:29:17;;;;;;;;;;;;;;;26.04;18.08;99304.55;1663484;83;20185;-71
2022/05/11 13:31:45;;;;;;;;;;;;;;;25.85;18.17;99300.45;1661256;85;20499;-73
2022/05/11 13:34:32;;;;;;;;;;;;;;;25.84;17.90;99297.45;1649845;84;21126;-72
2022/05/11 13:36:59;;;;;;;;;;;;;;;25.91;18.27;99300.16;1638094;86;20429;-72
2022/05/11 13:39:33;;;;;;;;;;;;;;;25.92;19.15;99298.94;1657278;85;20423;-72
2022/05/11 13:42:03;;;;;;;;;;;;;;;26.14;18.69;99294.54;1689779;84;20740;-72
2022/05/11 13:44:37;;;;;;;;;;;;;;;26.26;17.85;99296.75;1680790;84;20085;-73
2022/05/11 13:50:15;;;;;;;;;;;;;;;26.58;17.82;99290.56;1636933;86;20130;-72